Flight Track Log - Related Links

Times and Time Zones

All times are in EDT time to prevent confusion due to time zone crossing. See the N973TW flight status page for this flight to view local times or setup timezone preferences in your user account.

Time Position Orientation Groundspeed Altitude Reporting Facility
EDT Latitude Longitude Course Direction KTS MPH feet Rate Location/Type
Sun 12:15:15 PM 30.2130 -97.6658 197° South  Level FlightAware Approximate
Sun 12:16:15 PM 30.2644 -97.6023 214° Southwest  Level FlightAware Approximate
Sun 12:17:00 PM 30.1561 -97.6864 247° West 399 459 2,400  Level Houston Center
Sun 12:18:00 PM 30.1347 -97.7450 314° West 237 273 4,800 2,100 Climbing Houston Center
Sun 12:19:00 PM 30.1742 -97.7931 357° North 260 299 6,600 2,550 Climbing Houston Center
Sun 12:20:00 PM 30.2469 -97.7975 347° North 253 291 9,900 2,450 Climbing Houston Center
Sun 12:21:00 PM 30.3253 -97.8189 340° North 266 306 11,500 2,350 Climbing Houston Center
Sun 12:22:00 PM 30.4133 -97.8556 342° North 312 359 14,600 2,800 Climbing Houston Center
Sun 12:23:00 PM 30.5136 -97.8931 342° North 338 389 17,100 2,350 Climbing Houston Center
Sun 12:24:00 PM 30.6100 -97.9303 343° North 350 403 19,300 2,100 Climbing Houston Center
Sun 12:25:00 PM 30.7106 -97.9656 342° North 368 423 21,300 1,850 Climbing Houston Center
Sun 12:26:00 PM 30.8150 -98.0058 342° North 382 440 23,000 850 Climbing Houston Center
Sun 12:27:00 PM 30.9217 -98.0464 343° North 389 448 23,000  Level Houston Center
Sun 12:28:00 PM 31.0261 -98.0847 342° North 395 455 23,000  Level Houston Center
Sun 12:29:23 PM 31.1714 -98.1392 341° North 401 461 23,000  Level Fort Worth Center
Sun 12:30:23 PM 31.2694 -98.1789 344° North 383 441 23,000  Level Fort Worth Center
Sun 12:31:23 PM 31.3653 -98.2114 341° North 369 425 23,000  Level Fort Worth Center
Sun 12:32:23 PM 31.4653 -98.2511 346° North 364 419 23,000 -50 Level Fort Worth Center
Sun 12:33:23 PM 31.5611 -98.2789 19° North 364 419 22,900 -650 Descending Fort Worth Center
Sun 12:34:23 PM 31.6489 -98.2431 31° Northeast 346 398 21,700 -1,500 Descending Fort Worth Center
Sun 12:35:23 PM 31.7369 -98.1803 32° Northeast 359 413 19,900 -1,800 Descending Fort Worth Center
Sun 12:36:23 PM 31.8272 -98.1150 31° Northeast 364 419 18,100 -1,550 Descending Fort Worth Center
Sun 12:37:23 PM 31.9047 -98.0594 33° Northeast 345 397 16,800 -1,400 Descending Fort Worth Center
Sun 12:38:23 PM 31.9822 -98.0011 36° Northeast 338 389 15,300 -1,550 Descending Fort Worth Center
Sun 12:39:23 PM 32.0619 -97.9331 41° Northeast 325 374 13,700 -1,500 Descending Fort Worth Center
Sun 12:40:23 PM 32.1247 -97.8697 40° Northeast 325 374 12,300 -1,453 Descending Fort Worth Center
Sun 12:40:58 PM 32.1669 -97.8281 43° Northeast 336 387 11,400 -1,105 Descending FAA TRACON SMA TRACON (SMA)
Sun 12:41:39 PM 32.2119 -97.7792 34° Northeast 317 365 10,900 -370 Descending FAA TRACON SMA TRACON (SMA)
Sun 12:42:19 PM 32.2628 -97.7386 42° Northeast 315 362 10,900 -150 Level FAA TRACON SMA TRACON (SMA)
Sun 12:42:59 PM 32.2997 -97.6992 40° Northeast 290 334 10,700 -750 Descending FAA TRACON SMA TRACON (SMA)
Sun 12:43:39 PM 32.3408 -97.6586 44° Northeast 274 315 9,900 -1,500 Descending FAA TRACON SMA TRACON (SMA)
Sun 12:44:19 PM 32.3775 -97.6164 45° Northeast 267 307 8,700 -1,800 Descending FAA TRACON SMA TRACON (SMA)
Sun 12:44:59 PM 32.4108 -97.5764 45° Northeast 277 319 7,500 -1,704 Descending FAA TRACON SMA TRACON (SMA)
Sun 12:45:40 PM 32.4475 -97.5322 62° Northeast 274 315 6,400 -1,650 Descending FAA TRACON SMA TRACON (SMA)
Sun 12:46:19 PM 32.4722 -97.4778 73° East 276 318 5,300 -1,139 Descending FAA TRACON SMA TRACON (SMA)
Sun 12:46:59 PM 32.4878 -97.4181 72° East 274 315 4,900 -308 Descending FAA TRACON SMA TRACON (SMA)
Sun 12:47:37 PM 32.5022 -97.3653 71° East 273 314 4,900  Level FAA TRACON SMA TRACON (SMA)
Sun 12:48:18 PM 32.5189 -97.3067 73° East 271 312 4,900  Level FAA TRACON SMA TRACON (SMA)
Sun 12:48:57 PM 32.5331 -97.2531 68° East 277 319 4,900  Level FAA TRACON SMA TRACON (SMA)
Sun 12:49:37 PM 32.5525 -97.1944 37° Northeast 275 316 4,900  Level FAA TRACON SMA TRACON (SMA)
Sun 12:50:19 PM 32.5928 -97.1578 34° Northeast 264 304 4,900  Level FAA TRACON SMA TRACON (SMA)
Sun 12:50:58 PM 32.6303 -97.1275 36° Northeast 264 304 4,900 -375 Level FAA TRACON SMA TRACON (SMA)
Sun 12:51:39 PM 32.6703 -97.0931 51° Northeast 254 292 4,400 -815 Descending FAA TRACON SMA TRACON (SMA)
Sun 12:52:19 PM 32.7003 -97.0492 31° Northeast 252 290 3,800 -825 Descending FAA TRACON SMA TRACON (SMA)
Sun 12:52:59 PM 32.7347 -97.0244 359° North 244 281 3,300 -987 Descending FAA TRACON SMA TRACON (SMA)
Sun 12:53:38 PM 32.7756 -97.0256 360° North 208 239 2,500 -1,154 Descending FAA TRACON SMA TRACON (SMA)
Sun 12:54:17 PM 32.8111 -97.0258 360° North 183 211 1,800 -975 Descending FAA TRACON SMA TRACON (SMA)
Sun 12:54:58 PM 32.8408 -97.0261 359° North 148 170 1,200 -732 Descending FAA TRACON SMA TRACON (SMA)
Sun 12:55:39 PM 32.8636 -97.0267 359° North 133 153 800 -585 Descending FAA TRACON SMA TRACON (SMA)

Login

Don't have an account? Register now (free) for customized features, flight alerts, and more!